Time;durP1;ratioP1;P1;durP2;ratioP2;P2;SDS_P1;SDS_P2;PMS_P1;PMS_P2;Temp;Humidity;BMP_temperature;BMP_pressure;BME280_temperature;BME280_humidity;BME280_pressure;Samples;Min_cycle;Max_cycle;Signal;HPM_P1;HPM_P2
2022/04/08 00:00:54;;;;;;;0.50;0.50;;;;;;;;;;6186593;23;20025;-79
2022/04/08 00:03:22;;;;;;;1.48;0.60;;;;;;;;;;6150963;23;20017;-81
2022/04/08 00:05:52;;;;;;;0.60;0.60;;;;;;;;;;6182777;23;20032;-80
2022/04/08 00:08:20;;;;;;;0.73;0.73;;;;;;;;;;6186375;23;20017;-80
2022/04/08 00:10:48;;;;;;;1.40;0.70;;;;;;;;;;6178202;23;20021;-80
2022/04/08 00:13:17;;;;;;;2.03;1.90;;;;;;;;;;6158728;23;20021;-81
2022/04/08 00:15:45;;;;;;;0.65;0.65;;;;;;;;;;6187791;23;20017;-80
2022/04/08 00:18:13;;;;;;;0.93;0.93;;;;;;;;;;6180559;23;20035;-81
2022/04/08 00:20:42;;;;;;;10.93;2.45;;;;;;;;;;6187662;23;20017;-80
2022/04/08 00:23:10;;;;;;;1.10;1.10;;;;;;;;;;6176302;23;20040;-80
2022/04/08 00:25:38;;;;;;;0.60;0.60;;;;;;;;;;6183144;23;20025;-80
2022/04/08 00:28:07;;;;;;;5.63;1.38;;;;;;;;;;6180448;23;20067;-80
2022/04/08 00:30:35;;;;;;;0.60;0.60;;;;;;;;;;6179558;23;20029;-81
2022/04/08 00:33:03;;;;;;;2.45;1.23;;;;;;;;;;6185617;23;20067;-82
2022/04/08 00:35:31;;;;;;;1.95;1.60;;;;;;;;;;6188246;23;20017;-79
2022/04/08 00:37:59;;;;;;;0.55;0.55;;;;;;;;;;6182460;23;20036;-79
2022/04/08 00:40:28;;;;;;;0.80;0.80;;;;;;;;;;6188853;23;20024;-79
2022/04/08 00:42:56;;;;;;;8.50;0.80;;;;;;;;;;6179432;23;20032;-80
2022/04/08 00:45:24;;;;;;;0.80;0.80;;;;;;;;;;6186070;23;20449;-80
2022/04/08 00:47:52;;;;;;;0.60;0.60;;;;;;;;;;6189070;23;20653;-79
2022/04/08 00:50:22;;;;;;;1.30;1.25;;;;;;;;;;6181439;23;20021;-79
2022/04/08 00:52:50;;;;;;;0.68;0.68;;;;;;;;;;6187922;23;20021;-79
2022/04/08 00:55:18;;;;;;;1.10;1.10;;;;;;;;;;6188870;23;20017;-80
2022/04/08 00:57:46;;;;;;;0.90;0.90;;;;;;;;;;6184123;23;20052;-79
2022/04/08 01:00:14;;;;;;;3.13;0.90;;;;;;;;;;6189220;23;20457;-79
2022/04/08 01:02:42;;;;;;;1.45;1.35;;;;;;;;;;6178020;23;20021;-79
2022/04/08 01:05:10;;;;;;;1.95;1.00;;;;;;;;;;6186662;23;20029;-79
2022/04/08 01:07:38;;;;;;;1.02;0.75;;;;;;;;;;6187941;23;20013;-79
2022/04/08 01:10:06;;;;;;;1.98;1.35;;;;;;;;;;6182561;23;20036;-79
2022/04/08 01:12:34;;;;;;;0.88;0.88;;;;;;;;;;6189063;23;20028;-79
2022/04/08 01:15:02;;;;;;;1.20;1.10;;;;;;;;;;6178318;23;20033;-79
2022/04/08 01:17:30;;;;;;;1.42;1.33;;;;;;;;;;6184893;23;20036;-79
2022/04/08 01:19:58;;;;;;;1.13;1.02;;;;;;;;;;6188853;23;20333;-78
2022/04/08 01:22:26;;;;;;;1.08;1.05;;;;;;;;;;6178057;23;20037;-79
2022/04/08 01:25:01;;;;;;;6.30;1.10;;;;;;;;;;6187606;23;20433;-78
2022/04/08 01:27:29;;;;;;;1.08;0.95;;;;;;;;;;6183854;23;20017;-79
2022/04/08 01:29:57;;;;;;;6.93;1.52;;;;;;;;;;6156515;23;20025;-79
2022/04/08 01:32:25;;;;;;;0.80;0.80;;;;;;;;;;6151637;23;20017;-78
2022/04/08 01:34:53;;;;;;;1.05;1.05;;;;;;;;;;6179048;23;20033;-79
2022/04/08 01:37:22;;;;;;;1.08;0.98;;;;;;;;;;6184974;23;20426;-78
2022/04/08 01:39:50;;;;;;;1.42;1.00;;;;;;;;;;6187505;23;20036;-78
2022/04/08 01:42:22;;;;;;;2.72;0.80;;;;;;;;;;6181580;23;20025;-78
2022/04/08 01:44:50;;;;;;;2.05;1.23;;;;;;;;;;6161522;23;20024;-79
2022/04/08 01:47:18;;;;;;;1.13;1.08;;;;;;;;;;6187746;23;20012;-78
2022/04/08 01:49:46;;;;;;;0.88;0.88;;;;;;;;;;6183622;23;20460;-79
2022/04/08 01:52:15;;;;;;;0.82;0.82;;;;;;;;;;6188679;23;20020;-79
2022/04/08 01:54:43;;;;;;;2.25;0.90;;;;;;;;;;6153339;23;20028;-78
2022/04/08 01:57:11;;;;;;;1.08;1.05;;;;;;;;;;6184853;23;20044;-79
2022/04/08 01:59:40;;;;;;;5.45;1.30;;;;;;;;;;6161836;23;20593;-79
2022/04/08 02:02:08;;;;;;;6.40;2.00;;;;;;;;;;6181685;23;20483;-79
2022/04/08 02:04:36;;;;;;;5.68;1.90;;;;;;;;;;6161573;23;20020;-79
2022/04/08 02:07:06;;;;;;;7.93;2.80;;;;;;;;;;6150552;23;20029;-79
2022/04/08 02:09:34;;;;;;;2.22;1.30;;;;;;;;;;6157485;23;20028;-79
2022/04/08 02:12:02;;;;;;;2.00;1.35;;;;;;;;;;6162329;23;20020;-79
2022/04/08 02:14:31;;;;;;;13.13;4.40;;;;;;;;;;6154325;23;20356;-80
2022/04/08 02:17:01;;;;;;;5.10;2.20;;;;;;;;;;6186763;23;20028;-76
2022/04/08 02:19:29;;;;;;;3.45;2.45;;;;;;;;;;6187809;23;20027;-75
2022/04/08 02:22:03;;;;;;;1.63;1.52;;;;;;;;;;6182416;23;20025;-76
2022/04/08 02:24:31;;;;;;;4.30;1.75;;;;;;;;;;6186980;23;20017;-75
2022/04/08 02:27:00;;;;;;;2.17;1.60;;;;;;;;;;6178130;23;20042;-75
2022/04/08 02:29:28;;;;;;;9.00;2.60;;;;;;;;;;6179943;23;20029;-75
2022/04/08 02:31:58;;;;;;;3.00;2.67;;;;;;;;;;6188202;23;20017;-75
2022/04/08 02:34:27;;;;;;;2.73;1.50;;;;;;;;;;6180215;23;20029;-80
2022/04/08 02:36:55;;;;;;;5.60;2.83;;;;;;;;;;6180421;23;20252;-81
2022/04/08 02:39:23;;;;;;;3.60;2.10;;;;;;;;;;6151145;23;20017;-81
2022/04/08 02:41:51;;;;;;;4.63;1.85;;;;;;;;;;6157553;23;20028;-80
2022/04/08 02:44:20;;;;;;;3.83;2.00;;;;;;;;;;6161517;23;20013;-81
2022/04/08 02:46:48;;;;;;;3.88;2.47;;;;;;;;;;6152832;23;20029;-81
2022/04/08 02:49:16;;;;;;;2.55;1.75;;;;;;;;;;6184828;23;20021;-81
2022/04/08 02:51:44;;;;;;;2.72;2.55;;;;;;;;;;6161897;23;20768;-79
2022/04/08 02:54:15;;;;;;;1.83;1.67;;;;;;;;;;6131753;23;20036;-81
2022/04/08 02:56:43;;;;;;;2.08;1.88;;;;;;;;;;6127600;23;20025;-80
2022/04/08 02:59:12;;;;;;;2.95;2.40;;;;;;;;;;6150773;23;20342;-81
2022/04/08 03:01:41;;;;;;;4.75;1.92;;;;;;;;;;6183751;23;20028;-82
2022/04/08 03:04:09;;;;;;;5.38;2.22;;;;;;;;;;6161864;23;20020;-83
2022/04/08 03:06:38;;;;;;;3.00;2.70;;;;;;;;;;6180366;23;20032;-82
2022/04/08 03:09:06;;;;;;;5.88;1.92;;;;;;;;;;6185529;23;20017;-82
2022/04/08 03:11:34;;;;;;;2.20;1.88;;;;;;;;;;6188259;23;20048;-83
2022/04/08 03:14:04;;;;;;;2.72;2.40;;;;;;;;;;6181792;23;20033;-82
2022/04/08 03:16:33;;;;;;;2.75;1.77;;;;;;;;;;6188774;23;20017;-82
2022/04/08 03:19:04;;;;;;;1.58;1.48;;;;;;;;;;6150587;23;20402;-83
2022/04/08 03:21:32;;;;;;;6.20;1.75;;;;;;;;;;6150696;23;20036;-82
2022/04/08 03:24:00;;;;;;;2.38;1.90;;;;;;;;;;6187257;23;20017;-82
2022/04/08 03:26:28;;;;;;;12.13;2.50;;;;;;;;;;6180336;23;20036;-82
2022/04/08 03:28:56;;;;;;;4.22;2.28;;;;;;;;;;6186831;23;20020;-83
2022/04/08 03:31:24;;;;;;;6.90;3.95;;;;;;;;;;6188174;23;20024;-82
2022/04/08 03:33:53;;;;;;;4.72;2.00;;;;;;;;;;6183191;23;20676;-84
2022/04/08 03:36:22;;;;;;;1.60;1.50;;;;;;;;;;6152020;23;20021;-84
2022/04/08 03:38:50;;;;;;;2.05;1.90;;;;;;;;;;6178029;23;20040;-83
2022/04/08 03:41:18;;;;;;;1.92;1.83;;;;;;;;;;6185066;23;20036;-83
2022/04/08 03:43:46;;;;;;;13.85;5.47;;;;;;;;;;6188432;23;20017;-84
2022/04/08 03:46:16;;;;;;;5.35;2.67;;;;;;;;;;6181577;23;20036;-85
2022/04/08 03:48:46;;;;;;;8.52;2.25;;;;;;;;;;6161402;23;20013;-85
2022/04/08 03:51:14;;;;;;;4.78;2.30;;;;;;;;;;6177090;23;20025;-84
2022/04/08 03:53:42;;;;;;;6.32;4.00;;;;;;;;;;6183024;23;20369;-82
2022/04/08 03:56:10;;;;;;;5.65;2.08;;;;;;;;;;6188171;23;20023;-84
2022/04/08 03:58:51;;;;;;;2.53;1.77;;;;;;;;;;6179793;23;20033;-84
2022/04/08 04:02:05;;;;;;;4.70;1.98;;;;;;;;;;6183310;23;20029;-84
2022/04/08 04:04:59;;;;;;;6.88;1.55;;;;;;;;;;6187168;23;20013;-84
2022/04/08 04:07:38;;;;;;;6.50;2.75;;;;;;;;;;6187836;23;20013;-85
2022/04/08 04:10:20;;;;;;;3.83;1.75;;;;;;;;;;6166817;23;20325;-83
2022/04/08 04:12:48;;;;;;;8.07;2.92;;;;;;;;;;6189977;23;20017;-82
2022/04/08 04:15:16;;;;;;;8.20;2.42;;;;;;;;;;6178880;23;20025;-83
2022/04/08 04:17:45;;;;;;;7.35;1.67;;;;;;;;;;6158382;23;20036;-84
2022/04/08 04:20:13;;;;;;;3.67;1.85;;;;;;;;;;6190077;23;20028;-81
2022/04/08 04:22:42;;;;;;;1.75;1.55;;;;;;;;;;6181429;23;20036;-84
2022/04/08 04:25:10;;;;;;;4.47;2.20;;;;;;;;;;6186886;23;20029;-82
2022/04/08 04:27:38;;;;;;;2.65;1.50;;;;;;;;;;6184438;23;20025;-82
2022/04/08 04:30:06;;;;;;;5.35;2.83;;;;;;;;;;6184139;23;20028;-84
2022/04/08 04:32:34;;;;;;;3.47;1.30;;;;;;;;;;6189855;23;20020;-84
2022/04/08 04:35:06;;;;;;;2.95;1.40;;;;;;;;;;6178394;23;20032;-82
2022/04/08 04:37:37;;;;;;;3.72;1.48;;;;;;;;;;6185258;23;20032;-82
2022/04/08 04:40:08;;;;;;;5.03;2.30;;;;;;;;;;6189628;23;20020;-83
2022/04/08 04:42:36;;;;;;;7.43;1.85;;;;;;;;;;6182064;23;20029;-85
2022/04/08 04:45:04;;;;;;;5.32;3.25;;;;;;;;;;6161740;23;20021;-84
2022/04/08 04:47:32;;;;;;;3.53;2.38;;;;;;;;;;6189793;23;20024;-82
2022/04/08 04:50:00;;;;;;;1.92;1.73;;;;;;;;;;6183603;23;20036;-83
2022/04/08 04:52:28;;;;;;;5.97;1.40;;;;;;;;;;6189311;23;20013;-82
2022/04/08 04:54:57;;;;;;;2.22;1.75;;;;;;;;;;6179960;23;20033;-83
2022/04/08 04:57:25;;;;;;;1.40;1.30;;;;;;;;;;6186630;23;20029;-84
2022/04/08 04:59:53;;;;;;;2.25;1.73;;;;;;;;;;6189124;23;20021;-84
2022/04/08 05:02:21;;;;;;;5.88;1.95;;;;;;;;;;6182651;23;20646;-86
2022/04/08 05:04:52;;;;;;;3.63;1.20;;;;;;;;;;6190164;23;20024;-88
2022/04/08 05:07:20;;;;;;;1.92;1.77;;;;;;;;;;6180434;23;20621;-88
2022/04/08 05:09:48;;;;;;;4.05;2.05;;;;;;;;;;6157946;23;20021;-85
2022/04/08 05:12:16;;;;;;;2.90;1.25;;;;;;;;;;6189762;23;20013;-87
2022/04/08 05:14:47;;;;;;;3.50;1.17;;;;;;;;;;6181496;23;20029;-86
2022/04/08 05:17:15;;;;;;;3.53;1.10;;;;;;;;;;6187268;23;20021;-86
2022/04/08 05:19:43;;;;;;;3.00;1.45;;;;;;;;;;6189398;23;20024;-88
2022/04/08 05:22:18;;;;;;;3.20;1.45;;;;;;;;;;6182616;23;20037;-85
2022/04/08 05:24:46;;;;;;;9.63;1.25;;;;;;;;;;6188705;23;20017;-86
2022/04/08 05:27:14;;;;;;;3.22;1.35;;;;;;;;;;6178276;23;20361;-86
2022/04/08 05:29:42;;;;;;;1.75;1.20;;;;;;;;;;6184874;23;20021;-91
2022/04/08 05:32:28;;;;;;;6.43;3.70;;;;;;;;;;6191480;23;20016;-90
2022/04/08 05:35:48;;;;;;;6.00;3.92;;;;;;;;;;6167648;23;20101;-84
2022/04/08 05:38:22;;;;;;;1.60;1.13;;;;;;;;;;6180843;23;20032;-85
2022/04/08 05:41:06;;;;;;;4.97;1.58;;;;;;;;;;6187725;23;20021;-83
2022/04/08 05:44:06;;;;;;;7.60;1.98;;;;;;;;;;6188785;23;20021;-84
2022/04/08 05:46:35;;;;;;;2.03;1.85;;;;;;;;;;6180122;23;20029;-84
2022/04/08 05:49:15;;;;;;;2.72;1.75;;;;;;;;;;6167551;23;20020;-84
2022/04/08 05:51:49;;;;;;;12.05;1.85;;;;;;;;;;6169282;23;20073;-83
2022/04/08 05:54:30;;;;;;;1.88;1.77;;;;;;;;;;6180980;23;20025;-84
2022/04/08 05:57:24;;;;;;;2.78;1.20;;;;;;;;;;6131065;23;20017;-85
2022/04/08 06:00:18;;;;;;;14.70;1.40;;;;;;;;;;6162532;23;20013;-84
2022/04/08 06:02:56;;;;;;;1.90;1.30;;;;;;;;;;6179190;23;20025;-83
2022/04/08 06:05:31;;;;;;;5.55;2.50;;;;;;;;;;6175019;23;20020;-84
2022/04/08 06:07:59;;;;;;;3.17;1.17;;;;;;;;;;6187513;23;20020;-82
2022/04/08 06:10:31;;;;;;;3.50;1.08;;;;;;;;;;6181290;23;20032;-85
2022/04/08 06:13:13;;;;;;;2.60;1.77;;;;;;;;;;6186347;23;20052;-84
2022/04/08 06:15:56;;;;;;;1.80;1.40;;;;;;;;;;6151533;23;20017;-86
2022/04/08 06:18:47;;;;;;;3.03;1.85;;;;;;;;;;6177647;23;20475;-85
2022/04/08 06:21:40;;;;;;;1.23;1.15;;;;;;;;;;6132725;23;20043;-85
2022/04/08 06:24:11;;;;;;;5.97;2.25;;;;;;;;;;6171389;23;20013;-84
2022/04/08 06:26:48;;;;;;;5.18;1.55;;;;;;;;;;6129878;23;20746;-85
2022/04/08 06:29:33;;;;;;;2.15;1.30;;;;;;;;;;6112103;23;20017;-84
2022/04/08 06:32:27;;;;;;;8.70;1.88;;;;;;;;;;6088530;23;20066;-83
2022/04/08 06:38:09;;;;;;;7.15;1.58;;;;;;;;;;6065780;23;20535;-85
2022/04/08 06:44:02;;;;;;;1.52;1.23;;;;;;;;;;5998475;23;20035;-84
2022/04/08 06:46:30;;;;;;;;;;;;;;;;;;6082437;23;20462;-84
2022/04/08 06:49:25;;;;;;;;;;;;;;;;;;;;;
2022/04/08 06:51:58;;;;;;;2.10;1.90;;;;;;;;;;6033563;23;20030;-83
2022/04/08 06:54:44;;;;;;;3.95;2.13;;;;;;;;;;6053478;23;20030;-83
2022/04/08 06:57:17;;;;;;;2.17;1.40;;;;;;;;;;6064773;23;20185;-84
2022/04/08 06:59:49;;;;;;;1.98;1.48;;;;;;;;;;6030042;23;20074;-83
2022/04/08 07:02:18;;;;;;;3.00;1.58;;;;;;;;;;6059947;23;20031;-83
2022/04/08 07:04:48;;;;;;;4.43;2.22;;;;;;;;;;6084928;23;20023;-83
2022/04/08 07:07:50;;;;;;;1.65;1.55;;;;;;;;;;6020576;23;20033;-84
2022/04/08 07:10:24;;;;;;;4.45;1.83;;;;;;;;;;6153089;23;20032;-82
2022/04/08 07:12:52;;;;;;;7.53;1.50;;;;;;;;;;6151103;23;20017;-83
2022/04/08 07:15:23;;;;;;;12.60;4.45;;;;;;;;;;6161702;23;20017;-83
2022/04/08 07:17:51;;;;;;;1.93;1.77;;;;;;;;;;6150271;23;20029;-83
2022/04/08 07:20:19;;;;;;;2.47;2.10;;;;;;;;;;6151267;23;20084;-82
2022/04/08 07:22:53;;;;;;;6.63;1.77;;;;;;;;;;6178504;23;20052;-83
2022/04/08 07:25:21;;;;;;;1.00;1.00;;;;;;;;;;6126255;23;20368;-82
2022/04/08 07:27:55;;;;;;;4.90;1.70;;;;;;;;;;6150912;23;20040;-83
2022/04/08 07:30:24;;;;;;;3.58;2.45;;;;;;;;;;6154591;23;20028;-82
2022/04/08 07:32:54;;;;;;;1.50;1.38;;;;;;;;;;6126544;23;20352;-83
2022/04/08 07:35:25;;;;;;;1.27;1.05;;;;;;;;;;6103119;23;20021;-83
2022/04/08 07:37:54;;;;;;;4.32;2.35;;;;;;;;;;6156107;23;20025;-84
2022/04/08 07:40:22;;;;;;;2.45;1.95;;;;;;;;;;6161762;23;20036;-84
2022/04/08 07:42:54;;;;;;;1.85;1.45;;;;;;;;;;6178992;23;20720;-84
2022/04/08 07:45:27;;;;;;;3.05;2.65;;;;;;;;;;6151552;23;20032;-84
2022/04/08 07:48:00;;;;;;;1.52;1.42;;;;;;;;;;6152989;23;20025;-84
2022/04/08 07:50:40;;;;;;;5.57;2.42;;;;;;;;;;6181659;23;20032;-83
2022/04/08 07:53:08;;;;;;;2.22;1.65;;;;;;;;;;6186848;23;20017;-84
2022/04/08 07:55:39;;;;;;;2.65;1.60;;;;;;;;;;6153554;23;20017;-84
2022/04/08 07:58:09;;;;;;;1.58;1.48;;;;;;;;;;6183519;23;20032;-84
2022/04/08 08:00:39;;;;;;;2.08;1.83;;;;;;;;;;6164142;23;20013;-83
2022/04/08 08:03:07;;;;;;;1.95;0.95;;;;;;;;;;6139633;23;20449;-83
2022/04/08 08:05:39;;;;;;;1.00;1.00;;;;;;;;;;6186154;23;20036;-86
2022/04/08 08:08:07;;;;;;;3.20;1.80;;;;;;;;;;6188821;23;20062;-84
2022/04/08 08:10:35;;;;;;;2.38;1.55;;;;;;;;;;6155335;23;20021;-83
2022/04/08 08:13:04;;;;;;;2.05;1.52;;;;;;;;;;6188851;23;20021;-84
2022/04/08 08:15:33;;;;;;;3.28;1.88;;;;;;;;;;6189687;23;20017;-84
2022/04/08 08:18:02;;;;;;;3.35;1.95;;;;;;;;;;6150871;23;20025;-84
2022/04/08 08:20:30;;;;;;;2.25;1.17;;;;;;;;;;6152696;23;20506;-84
2022/04/08 08:22:59;;;;;;;6.05;1.52;;;;;;;;;;6179343;23;20029;-85
2022/04/08 08:25:27;;;;;;;2.78;1.60;;;;;;;;;;6178867;23;20344;-83
2022/04/08 08:28:01;;;;;;;2.05;1.73;;;;;;;;;;6151417;23;20026;-84
2022/04/08 08:30:30;;;;;;;1.70;1.60;;;;;;;;;;6152437;23;20026;-84
2022/04/08 08:32:59;;;;;;;1.73;1.63;;;;;;;;;;6156648;23;20013;-84
2022/04/08 08:35:27;;;;;;;2.83;1.60;;;;;;;;;;6159906;23;20025;-84
2022/04/08 08:38:02;;;;;;;2.20;1.98;;;;;;;;;;6153169;23;20028;-84
2022/04/08 08:40:32;;;;;;;8.63;3.42;;;;;;;;;;6159563;23;20025;-84
2022/04/08 08:43:17;;;;;;;1.45;1.35;;;;;;;;;;6142950;23;20037;-85
2022/04/08 08:45:46;;;;;;;1.50;1.40;;;;;;;;;;6154914;23;20353;-85
2022/04/08 08:48:20;;;;;;;1.75;1.65;;;;;;;;;;6149108;23;20021;-84
2022/04/08 08:50:54;;;;;;;4.38;1.45;;;;;;;;;;6135628;23;20033;-85
2022/04/08 08:53:25;;;;;;;2.65;1.92;;;;;;;;;;6155714;23;20014;-85
2022/04/08 08:55:55;;;;;;;0.80;0.80;;;;;;;;;;6159314;23;20021;-85
2022/04/08 08:58:34;;;;;;;1.92;1.48;;;;;;;;;;6146708;23;20025;-85
2022/04/08 09:01:02;;;;;;;4.53;1.65;;;;;;;;;;6149069;23;20021;-85
2022/04/08 09:03:36;;;;;;;5.00;1.10;;;;;;;;;;6159257;23;20618;-85
2022/04/08 09:06:06;;;;;;;1.92;1.83;;;;;;;;;;6122088;23;20032;-85
2022/04/08 09:08:39;;;;;;;2.15;1.60;;;;;;;;;;6158700;23;20014;-85
2022/04/08 09:11:11;;;;;;;1.75;1.65;;;;;;;;;;6149268;23;20032;-85
2022/04/08 09:13:54;;;;;;;1.77;1.40;;;;;;;;;;6153655;23;20032;-85
2022/04/08 09:16:29;;;;;;;5.63;2.90;;;;;;;;;;6159306;23;20022;-85
2022/04/08 09:19:13;;;;;;;1.67;1.20;;;;;;;;;;6146098;23;20072;-85
2022/04/08 09:21:55;;;;;;;3.05;2.80;;;;;;;;;;6152860;23;20026;-84
2022/04/08 09:24:32;;;;;;;1.77;1.67;;;;;;;;;;6157609;23;20017;-85
2022/04/08 09:27:03;;;;;;;8.73;1.42;;;;;;;;;;6122067;23;20025;-84
2022/04/08 09:29:31;;;;;;;2.75;1.40;;;;;;;;;;6112955;23;20021;-85
2022/04/08 09:32:28;;;;;;;2.15;1.02;;;;;;;;;;6157787;23;20020;-84
2022/04/08 09:34:57;;;;;;;3.25;1.30;;;;;;;;;;6149636;23;20052;-83
2022/04/08 09:37:28;;;;;;;1.77;1.67;;;;;;;;;;6155738;23;20022;-84
2022/04/08 09:40:07;;;;;;;1.13;0.90;;;;;;;;;;6158360;23;20018;-84
2022/04/08 09:42:56;;;;;;;1.20;1.10;;;;;;;;;;6144747;23;20025;-85
2022/04/08 09:45:30;;;;;;;1.80;1.63;;;;;;;;;;6134475;23;20033;-78
2022/04/08 09:47:59;;;;;;;2.60;1.10;;;;;;;;;;6157929;23;20021;-78
2022/04/08 09:50:27;;;;;;;2.78;2.30;;;;;;;;;;6151334;23;20030;-78
2022/04/08 09:52:56;;;;;;;1.20;1.10;;;;;;;;;;6157602;23;20013;-78
2022/04/08 09:55:25;;;;;;;4.97;1.50;;;;;;;;;;6155585;23;20014;-78
2022/04/08 09:57:57;;;;;;;1.30;1.23;;;;;;;;;;6152311;23;20487;-78
2022/04/08 10:00:26;;;;;;;1.88;1.77;;;;;;;;;;6157814;23;20017;-78
2022/04/08 10:02:58;;;;;;;1.80;1.70;;;;;;;;;;6147101;23;20029;-78
2022/04/08 10:05:28;;;;;;;1.20;1.08;;;;;;;;;;6154969;23;20029;-78
2022/04/08 10:07:57;;;;;;;4.38;1.65;;;;;;;;;;6156949;23;20024;-78
2022/04/08 10:10:48;;;;;;;1.73;1.63;;;;;;;;;;6145529;23;20033;-78
2022/04/08 10:13:22;;;;;;;1.80;1.70;;;;;;;;;;6156482;23;20025;-78
2022/04/08 10:16:05;;;;;;;1.98;1.88;;;;;;;;;;6158252;23;20025;-78
2022/04/08 10:18:38;;;;;;;1.73;1.60;;;;;;;;;;6150086;23;20029;-78
2022/04/08 10:21:06;;;;;;;2.28;1.30;;;;;;;;;;6156631;23;20014;-78
2022/04/08 10:23:38;;;;;;;2.30;2.10;;;;;;;;;;6157237;23;20014;-78
2022/04/08 10:26:16;;;;;;;1.90;1.80;;;;;;;;;;6152067;23;20032;-78
2022/04/08 10:28:44;;;;;;;1.92;1.77;;;;;;;;;;6175664;23;20025;-78
2022/04/08 10:31:17;;;;;;;2.10;1.90;;;;;;;;;;6177824;23;20032;-78
2022/04/08 10:33:55;;;;;;;2.95;2.33;;;;;;;;;;6182640;23;20541;-78
2022/04/08 10:36:37;;;;;;;2.78;1.27;;;;;;;;;;6187954;23;20432;-78
2022/04/08 10:42:43;;;;;;;5.68;4.60;;;;;;;;;;6178775;23;20033;-81
2022/04/08 10:45:15;;;;;;;5.93;5.43;;;;;;;;;;6182106;23;20028;-81
2022/04/08 10:47:50;;;;;;;3.63;2.20;;;;;;;;;;6135658;23;20017;-82
2022/04/08 10:50:28;;;;;;;2.33;1.70;;;;;;;;;;6125063;23;20036;-82
2022/04/08 10:53:10;;;;;;;7.43;2.33;;;;;;;;;;6160205;23;20013;-82
2022/04/08 10:55:54;;;;;;;3.50;2.85;;;;;;;;;;6126668;23;20017;-81
2022/04/08 10:58:37;;;;;;;1.42;1.35;;;;;;;;;;6125522;23;20028;-84
2022/04/08 11:01:14;;;;;;;2.00;1.77;;;;;;;;;;6155370;23;20024;-81
2022/04/08 11:03:59;;;;;;;5.55;3.28;;;;;;;;;;6172452;23;20660;-82
2022/04/08 11:06:27;;;;;;;2.53;2.33;;;;;;;;;;6180048;23;20025;-81
2022/04/08 11:08:57;;;;;;;3.97;1.77;;;;;;;;;;6185043;23;20020;-82
2022/04/08 11:11:30;;;;;;;5.63;2.35;;;;;;;;;;6186715;23;20020;-80
2022/04/08 11:13:59;;;;;;;2.97;1.83;;;;;;;;;;6182181;23;20025;-80
2022/04/08 11:16:29;;;;;;;2.17;1.85;;;;;;;;;;6187553;23;20020;-82
2022/04/08 11:18:57;;;;;;;2.65;2.25;;;;;;;;;;6177284;23;20032;-83
2022/04/08 11:21:25;;;;;;;1.60;1.50;;;;;;;;;;6184262;23;20024;-82
2022/04/08 11:23:59;;;;;;;1.50;1.40;;;;;;;;;;6177035;23;20024;-83
2022/04/08 11:26:28;;;;;;;2.97;2.20;;;;;;;;;;6179685;23;20028;-83
2022/04/08 11:28:57;;;;;;;4.93;1.58;;;;;;;;;;6126716;23;20020;-81
2022/04/08 11:31:37;;;;;;;2.22;1.98;;;;;;;;;;6128386;23;20018;-80
2022/04/08 11:34:06;;;;;;;5.55;2.50;;;;;;;;;;6121252;23;20018;-81
2022/04/08 11:36:35;;;;;;;1.88;1.77;;;;;;;;;;6128236;23;20014;-81
2022/04/08 11:39:05;;;;;;;2.28;2.17;;;;;;;;;;6117019;23;20026;-81
2022/04/08 11:41:38;;;;;;;6.45;1.98;;;;;;;;;;6091670;23;20416;-81
2022/04/08 11:44:08;;;;;;;1.75;1.65;;;;;;;;;;6092106;23;20528;-81
2022/04/08 11:46:36;;;;;;;2.28;2.08;;;;;;;;;;6119091;23;20037;-81
2022/04/08 11:49:04;;;;;;;2.42;2.22;;;;;;;;;;6091218;23;20025;-83
2022/04/08 11:51:32;;;;;;;3.90;2.45;;;;;;;;;;6117531;23;20022;-80
2022/04/08 11:54:01;;;;;;;2.38;2.05;;;;;;;;;;6121704;23;20211;-80
2022/04/08 11:56:30;;;;;;;1.80;1.70;;;;;;;;;;6127679;23;20434;-80
2022/04/08 11:59:07;;;;;;;2.53;2.40;;;;;;;;;;6117886;23;20044;-81
2022/04/08 12:01:38;;;;;;;4.78;1.63;;;;;;;;;;6122335;23;20479;-81
2022/04/08 12:04:08;;;;;;;1.70;1.60;;;;;;;;;;6126163;23;20321;-81
2022/04/08 12:06:42;;;;;;;2.15;1.95;;;;;;;;;;6094129;23;20026;-78
2022/04/08 12:09:11;;;;;;;2.40;2.17;;;;;;;;;;6124574;23;20022;-78
2022/04/08 12:11:40;;;;;;;3.13;2.83;;;;;;;;;;6125766;23;20013;-77
2022/04/08 12:14:19;;;;;;;2.05;1.95;;;;;;;;;;6121701;23;20022;-79
2022/04/08 12:16:51;;;;;;;1.98;1.88;;;;;;;;;;6101424;23;20680;-79
2022/04/08 12:19:22;;;;;;;1.80;1.70;;;;;;;;;;6116211;23;20064;-79
2022/04/08 12:22:12;;;;;;;2.08;1.98;;;;;;;;;;6091473;23;20029;-79
2022/04/08 12:24:41;;;;;;;2.15;1.95;;;;;;;;;;6091113;23;20021;-79
2022/04/08 12:27:20;;;;;;;3.08;2.88;;;;;;;;;;6124493;23;20030;-79
2022/04/08 12:30:02;;;;;;;16.58;9.50;;;;;;;;;;6150807;23;20026;-79
2022/04/08 12:32:34;;;;;;;6.03;4.45;;;;;;;;;;6156702;23;20020;-79
2022/04/08 12:35:03;;;;;;;2.13;2.00;;;;;;;;;;6148705;23;20027;-78
2022/04/08 12:37:32;;;;;;;2.15;2.00;;;;;;;;;;6146279;23;20022;-79
2022/04/08 12:40:01;;;;;;;3.28;1.98;;;;;;;;;;6158222;23;20013;-79
2022/04/08 12:42:29;;;;;;;3.47;2.58;;;;;;;;;;6151846;23;20457;-80
2022/04/08 12:44:57;;;;;;;2.35;1.90;;;;;;;;;;6146276;23;20021;-80
2022/04/08 12:47:25;;;;;;;3.88;2.83;;;;;;;;;;6156884;23;20018;-80
2022/04/08 12:49:53;;;;;;;2.25;2.15;;;;;;;;;;6151866;23;20025;-80
2022/04/08 12:52:22;;;;;;;4.28;2.95;;;;;;;;;;6148656;23;20028;-82
2022/04/08 12:54:50;;;;;;;1.85;1.73;;;;;;;;;;6121731;23;20022;-81
2022/04/08 12:57:19;;;;;;;2.03;1.85;;;;;;;;;;6156518;23;20028;-82
2022/04/08 13:00:12;;;;;;;3.03;2.92;;;;;;;;;;6156580;23;20418;-80
2022/04/08 13:02:41;;;;;;;2.47;2.03;;;;;;;;;;6122403;23;20026;-80
2022/04/08 13:05:10;;;;;;;3.25;3.05;;;;;;;;;;6157092;23;20033;-82
2022/04/08 13:07:38;;;;;;;1.30;1.20;;;;;;;;;;6149568;23;20024;-81
2022/04/08 13:10:07;;;;;;;1.40;1.30;;;;;;;;;;6150461;23;20022;-80
2022/04/08 13:12:36;;;;;;;1.10;0.98;;;;;;;;;;6158562;23;20341;-81
2022/04/08 13:15:05;;;;;;;2.10;1.55;;;;;;;;;;6147936;23;20460;-83
2022/04/08 13:17:35;;;;;;;2.63;1.15;;;;;;;;;;6122552;23;20041;-83
2022/04/08 13:20:04;;;;;;;2.28;2.08;;;;;;;;;;6146565;23;20021;-82
2022/04/08 13:22:32;;;;;;;1.42;1.33;;;;;;;;;;6150712;23;20033;-83
2022/04/08 13:25:01;;;;;;;2.72;2.53;;;;;;;;;;6121794;23;20022;-84
2022/04/08 13:27:29;;;;;;;1.92;1.52;;;;;;;;;;6127590;23;20021;-79
2022/04/08 13:29:57;;;;;;;1.30;1.30;;;;;;;;;;6153569;23;20026;-78
2022/04/08 13:36:03;;;;;;;1.80;1.70;;;;;;;;;;6137508;23;20032;-78
2022/04/08 13:38:31;;;;;;;1.48;1.38;;;;;;;;;;6149683;23;20025;-79
2022/04/08 13:41:01;;;;;;;2.20;1.50;;;;;;;;;;6156901;23;20021;-80
2022/04/08 13:43:30;;;;;;;3.25;1.35;;;;;;;;;;6157630;23;20018;-79
2022/04/08 13:45:58;;;;;;;2.88;1.25;;;;;;;;;;6153031;23;20029;-78
2022/04/08 13:48:26;;;;;;;3.47;1.20;;;;;;;;;;6157333;23;20020;-78
2022/04/08 13:50:54;;;;;;;1.58;1.40;;;;;;;;;;6148962;23;20361;-78
2022/04/08 13:53:23;;;;;;;1.23;1.20;;;;;;;;;;6154977;23;20410;-78
2022/04/08 13:55:51;;;;;;;1.63;1.17;;;;;;;;;;6157887;23;20014;-78
2022/04/08 13:58:20;;;;;;;2.15;1.92;;;;;;;;;;6150774;23;20025;-78
2022/04/08 14:00:48;;;;;;;2.03;1.90;;;;;;;;;;6158449;23;20018;-78
2022/04/08 14:03:16;;;;;;;1.63;1.52;;;;;;;;;;6147898;23;20029;-79
2022/04/08 14:05:44;;;;;;;1.23;1.02;;;;;;;;;;6153829;23;20029;-77
2022/04/08 14:08:13;;;;;;;2.40;1.25;;;;;;;;;;6155418;23;20017;-79
2022/04/08 14:10:42;;;;;;;1.13;1.10;;;;;;;;;;6149607;23;20033;-78
2022/04/08 14:13:10;;;;;;;0.70;0.70;;;;;;;;;;6155895;23;20021;-78
2022/04/08 14:15:38;;;;;;;0.75;0.75;;;;;;;;;;6157622;23;20013;-80
2022/04/08 14:18:07;;;;;;;0.50;0.50;;;;;;;;;;6146970;23;20357;-81
2022/04/08 14:20:35;;;;;;;0.50;0.50;;;;;;;;;;6157628;23;20390;-81
2022/04/08 14:23:04;;;;;;;0.57;0.45;;;;;;;;;;6147659;23;20037;-80
2022/04/08 14:25:33;;;;;;;1.92;0.55;;;;;;;;;;6154395;23;20032;-79
2022/04/08 14:28:01;;;;;;;0.50;0.50;;;;;;;;;;6169402;23;20021;-80
2022/04/08 14:30:29;;;;;;;0.40;0.40;;;;;;;;;;6153584;23;20025;-79
2022/04/08 14:33:00;;;;;;;0.82;0.70;;;;;;;;;;6149536;23;20017;-80
2022/04/08 14:35:28;;;;;;;0.30;0.30;;;;;;;;;;6187325;23;20013;-82
2022/04/08 14:37:57;;;;;;;0.90;0.40;;;;;;;;;;6181377;23;20025;-81
2022/04/08 14:40:25;;;;;;;0.40;0.40;;;;;;;;;;6187576;23;20343;-81
2022/04/08 14:42:57;;;;;;;0.40;0.40;;;;;;;;;;6178701;23;20543;-82
2022/04/08 14:45:25;;;;;;;;;;;;;;;;;;6185209;23;20387;-82
2022/04/08 14:47:53;;;;;;;0.45;0.45;;;;;;;;;;6186591;23;19927;-79
2022/04/08 14:50:22;;;;;;;1.10;0.40;;;;;;;;;;6176024;23;20337;-79
2022/04/08 14:52:53;;;;;;;0.50;0.50;;;;;;;;;;6186217;23;20016;-79
2022/04/08 14:55:23;;;;;;;0.52;0.47;;;;;;;;;;6161145;23;20017;-79
2022/04/08 14:57:55;;;;;;;0.40;0.40;;;;;;;;;;6181583;23;20028;-80
2022/04/08 15:00:24;;;;;;;0.80;0.80;;;;;;;;;;6187039;23;20052;-80
2022/04/08 15:06:41;;;;;;;0.32;0.32;;;;;;;;;;6151875;23;20033;-77
2022/04/08 15:09:52;;;;;;;0.60;0.50;;;;;;;;;;6147248;23;20021;-77
2022/04/08 15:13:02;;;;;;;0.50;0.50;;;;;;;;;;6166804;23;20432;-80
2022/04/08 15:15:47;;;;;;;1.88;1.17;;;;;;;;;;6186770;23;20013;-79
2022/04/08 15:18:20;;;;;;;1.05;0.43;;;;;;;;;;6179766;23;20068;-81
2022/04/08 15:20:51;;;;;;;0.40;0.40;;;;;;;;;;6185541;23;20020;-78
2022/04/08 15:23:21;;;;;;;0.38;0.38;;;;;;;;;;6185091;23;20017;-78
2022/04/08 15:25:53;;;;;;;0.43;0.43;;;;;;;;;;6182017;23;20017;-78
2022/04/08 15:28:22;;;;;;;1.52;0.98;;;;;;;;;;6178795;23;20028;-79